createdAt,value
2023-02-15T00:01:36.689Z,99.90
2023-02-15T00:04:04.712Z,99.90
2023-02-15T00:06:32.075Z,99.90
2023-02-15T00:08:58.978Z,99.90
2023-02-15T00:11:41.189Z,99.90
2023-02-15T00:14:49.896Z,99.90
2023-02-15T00:17:16.702Z,99.90
2023-02-15T00:19:43.622Z,99.90
2023-02-15T00:22:10.535Z,99.90
2023-02-15T00:24:37.261Z,99.90
2023-02-15T00:27:04.171Z,99.90
2023-02-15T00:29:31.277Z,99.90
2023-02-15T00:31:58.147Z,99.90
2023-02-15T00:34:28.376Z,99.90
2023-02-15T00:36:55.399Z,99.90
2023-02-15T00:39:22.486Z,99.90
2023-02-15T00:41:49.325Z,99.90
2023-02-15T00:44:16.402Z,99.90
2023-02-15T00:46:43.397Z,99.90
2023-02-15T00:49:11.263Z,99.90
2023-02-15T00:51:38.231Z,99.90
2023-02-15T00:54:04.993Z,99.90
2023-02-15T00:56:31.980Z,99.90
2023-02-15T00:58:58.692Z,99.90
2023-02-15T01:01:26.783Z,99.90
2023-02-15T01:03:53.788Z,99.90
2023-02-15T01:06:20.602Z,99.90
2023-02-15T01:08:47.649Z,99.90
2023-02-15T01:11:16.369Z,99.90
2023-02-15T01:13:43.203Z,99.90
2023-02-15T01:16:10.043Z,99.90
2023-02-15T01:18:36.892Z,99.90
2023-02-15T01:21:14.869Z,99.90
2023-02-15T01:23:42.967Z,99.90
2023-02-15T01:26:10.574Z,99.90
2023-02-15T01:28:37.429Z,99.90
2023-02-15T01:31:15.145Z,99.90
2023-02-15T01:33:44.854Z,99.90
2023-02-15T01:36:11.689Z,99.90
2023-02-15T01:38:41.006Z,99.90
2023-02-15T01:41:27.419Z,99.90
2023-02-15T01:43:59.734Z,99.90
2023-02-15T01:46:41.242Z,99.90
2023-02-15T01:49:12.677Z,99.90
2023-02-15T01:51:39.491Z,99.90
2023-02-15T01:54:27.324Z,99.90
2023-02-15T01:56:54.400Z,99.90
2023-02-15T01:59:22.801Z,99.90
2023-02-15T02:01:50.176Z,99.90
2023-02-15T02:04:21.522Z,99.90
2023-02-15T02:06:48.762Z,99.90
2023-02-15T02:09:15.687Z,99.90
2023-02-15T02:11:42.505Z,99.90
2023-02-15T02:14:09.724Z,99.90
2023-02-15T02:16:39.975Z,99.90
2023-02-15T02:19:25.236Z,99.90
2023-02-15T02:22:17.139Z,99.90
2023-02-15T02:25:05.842Z,99.90
2023-02-15T02:27:47.129Z,99.90
2023-02-15T02:33:03.358Z,99.90
2023-02-15T02:35:37.770Z,99.90
2023-02-15T02:38:10.397Z,99.90
2023-02-15T02:40:55.136Z,99.90
2023-02-15T02:43:34.786Z,99.90
2023-02-15T02:46:06.886Z,99.90
2023-02-15T02:48:33.985Z,99.90
2023-02-15T02:51:00.824Z,99.90
2023-02-15T02:53:28.253Z,99.90
2023-02-15T02:56:01.020Z,99.90
2023-02-15T02:58:32.617Z,99.90
2023-02-15T03:01:02.698Z,99.90
2023-02-15T03:03:31.481Z,99.90
2023-02-15T03:06:01.567Z,99.90
2023-02-15T03:08:35.916Z,99.90
2023-02-15T03:11:03.394Z,99.90
2023-02-15T03:13:30.351Z,99.90
2023-02-15T03:16:16.005Z,99.90
2023-02-15T03:18:53.642Z,99.90
2023-02-15T03:21:26.992Z,99.90
2023-02-15T03:23:55.611Z,99.90
2023-02-15T03:26:22.750Z,99.90
2023-02-15T03:28:52.048Z,99.90
2023-02-15T03:31:19.023Z,99.90
2023-02-15T03:33:54.737Z,99.90
2023-02-15T03:36:30.231Z,99.90
2023-02-15T03:39:05.361Z,99.90
2023-02-15T03:41:35.369Z,99.90
2023-02-15T03:44:09.660Z,99.90
2023-02-15T03:46:53.574Z,99.90
2023-02-15T03:49:40.887Z,99.90
2023-02-15T03:52:08.120Z,99.90
2023-02-15T03:54:44.882Z,99.90
2023-02-15T03:57:44.973Z,99.90
2023-02-15T04:00:44.035Z,99.90
2023-02-15T04:03:16.930Z,99.90
2023-02-15T04:05:44.736Z,99.90
2023-02-15T04:08:11.802Z,99.90
2023-02-15T04:10:53.496Z,99.90
2023-02-15T04:13:24.625Z,99.90
2023-02-15T04:16:05.386Z,99.90
2023-02-15T04:19:01.813Z,99.90
2023-02-15T04:21:48.544Z,99.90
2023-02-15T04:24:34.342Z,99.90
2023-02-15T04:27:01.404Z,99.90
2023-02-15T04:29:28.498Z,99.90
2023-02-15T04:31:56.478Z,99.90
2023-02-15T04:34:23.527Z,99.90
2023-02-15T04:36:51.268Z,99.90
2023-02-15T04:39:18.527Z,99.90
2023-02-15T04:41:45.631Z,99.90
2023-02-15T04:44:12.475Z,99.90
2023-02-15T04:46:39.378Z,99.90
2023-02-15T04:49:06.661Z,99.90
2023-02-15T04:51:34.075Z,99.90
2023-02-15T04:54:00.894Z,99.90
2023-02-15T04:56:27.872Z,99.90
2023-02-15T04:58:55.653Z,99.90
2023-02-15T05:01:22.443Z,99.90
2023-02-15T05:03:49.265Z,99.90
2023-02-15T05:06:16.086Z,99.90
2023-02-15T05:08:43.121Z,99.90
2023-02-15T05:11:10.140Z,99.90
2023-02-15T05:13:37.597Z,99.90
2023-02-15T05:16:04.552Z,99.90
2023-02-15T05:18:31.635Z,99.90
2023-02-15T05:20:58.559Z,99.90
2023-02-15T05:23:25.375Z,99.90
2023-02-15T05:26:10.812Z,99.90
2023-02-15T05:28:38.328Z,99.90
2023-02-15T05:31:12.969Z,99.90
2023-02-15T05:33:40.178Z,99.90
2023-02-15T05:36:07.401Z,99.90
2023-02-15T05:38:35.170Z,99.90
2023-02-15T05:41:01.945Z,99.90
2023-02-15T05:43:28.729Z,99.90
2023-02-15T05:45:55.745Z,99.90
2023-02-15T05:48:24.476Z,99.90
2023-02-15T05:51:09.165Z,99.90
2023-02-15T05:53:38.172Z,99.90
2023-02-15T05:56:05.589Z,99.90
2023-02-15T05:58:34.609Z,99.90
2023-02-15T06:01:08.000Z,99.90
2023-02-15T06:03:34.934Z,99.90
2023-02-15T06:06:02.113Z,99.90
2023-02-15T06:08:29.112Z,99.90
2023-02-15T06:10:55.972Z,99.90
2023-02-15T06:13:23.369Z,99.90
2023-02-15T06:15:50.209Z,99.90
2023-02-15T06:18:17.105Z,99.90
2023-02-15T06:20:46.049Z,99.90
2023-02-15T06:23:13.664Z,99.90
2023-02-15T06:25:40.881Z,99.90
2023-02-15T06:28:07.735Z,99.90
2023-02-15T06:30:35.523Z,99.90
2023-02-15T06:33:02.428Z,99.90
2023-02-15T06:35:29.347Z,99.90
2023-02-15T06:37:56.607Z,99.90
2023-02-15T06:40:24.117Z,99.90
2023-02-15T06:42:51.146Z,99.90
2023-02-15T06:45:18.123Z,99.90
2023-02-15T06:47:44.924Z,99.90
2023-02-15T06:50:12.177Z,99.90
2023-02-15T06:52:39.021Z,99.90
2023-02-15T06:55:06.448Z,99.90
2023-02-15T06:57:34.456Z,99.90
2023-02-15T07:00:01.336Z,99.90
2023-02-15T07:02:28.163Z,99.90
2023-02-15T07:04:54.967Z,99.90
2023-02-15T07:07:21.763Z,99.90
2023-02-15T07:09:48.819Z,99.90
2023-02-15T07:12:51.328Z,99.90
2023-02-15T07:15:22.246Z,99.90
2023-02-15T07:17:50.333Z,99.90
2023-02-15T07:20:21.554Z,99.90
2023-02-15T07:22:48.985Z,99.90
2023-02-15T07:25:15.924Z,99.90
2023-02-15T07:27:46.064Z,99.90
2023-02-15T07:30:14.699Z,99.90
2023-02-15T07:33:04.747Z,99.90
2023-02-15T07:35:32.061Z,99.90
2023-02-15T07:37:59.291Z,99.90
2023-02-15T07:40:26.991Z,99.90
2023-02-15T07:42:55.815Z,99.90
2023-02-15T07:45:22.934Z,99.90
2023-02-15T07:47:49.698Z,99.90
2023-02-15T07:50:16.620Z,99.90
2023-02-15T07:52:43.575Z,99.90
2023-02-15T07:55:13.759Z,99.90
2023-02-15T07:57:49.908Z,99.90
2023-02-15T08:00:17.955Z,99.90
2023-02-15T08:03:15.388Z,99.90
2023-02-15T08:05:43.454Z,99.90
2023-02-15T08:08:30.704Z,99.90
2023-02-15T08:11:22.153Z,99.90
2023-02-15T08:13:56.652Z,99.90
2023-02-15T08:16:23.502Z,99.90
2023-02-15T08:18:50.334Z,99.90
2023-02-15T08:21:17.338Z,99.90
2023-02-15T08:23:44.284Z,99.90
2023-02-15T08:26:11.107Z,99.90
2023-02-15T08:28:39.798Z,99.90
2023-02-15T08:31:11.531Z,99.90
2023-02-15T08:33:39.174Z,99.90
2023-02-15T08:36:07.333Z,99.90
2023-02-15T08:38:34.297Z,99.90
2023-02-15T08:41:40.221Z,99.90
2023-02-15T08:44:08.296Z,99.90
2023-02-15T08:46:36.838Z,99.90
2023-02-15T08:49:03.879Z,99.90
2023-02-15T08:51:35.186Z,99.90
2023-02-15T08:54:05.283Z,99.90
2023-02-15T08:56:55.611Z,99.90
2023-02-15T08:59:23.707Z,99.90
2023-02-15T09:01:52.086Z,99.90
2023-02-15T09:04:19.110Z,99.90
2023-02-15T09:06:48.899Z,99.90
2023-02-15T09:09:17.315Z,99.90
2023-02-15T09:11:45.167Z,99.90
2023-02-15T09:14:17.044Z,99.90
2023-02-15T09:16:49.746Z,99.90
2023-02-15T09:19:18.441Z,99.90
2023-02-15T09:21:45.480Z,99.90
2023-02-15T09:24:13.856Z,99.90
2023-02-15T09:26:42.731Z,99.90
2023-02-15T09:29:13.741Z,99.90
2023-02-15T09:31:45.290Z,99.90
2023-02-15T09:34:13.286Z,99.90
2023-02-15T09:36:40.616Z,99.90
2023-02-15T09:39:10.910Z,99.90
2023-02-15T09:41:44.680Z,99.90
2023-02-15T09:44:26.555Z,99.90
2023-02-15T09:47:08.732Z,99.90
2023-02-15T09:49:48.590Z,99.90
2023-02-15T09:52:50.820Z,99.90
2023-02-15T09:55:42.477Z,99.90
2023-02-15T09:58:35.062Z,99.90
2023-02-15T10:01:11.113Z,99.90
2023-02-15T10:04:16.471Z,99.90
2023-02-15T10:07:02.711Z,99.90
2023-02-15T10:10:10.502Z,99.90
2023-02-15T10:13:01.049Z,99.90
2023-02-15T10:15:43.035Z,99.90
2023-02-15T10:18:30.957Z,99.90
2023-02-15T10:21:22.366Z,99.90
2023-02-15T10:24:01.581Z,99.90
2023-02-15T10:26:32.563Z,99.90
2023-02-15T10:29:07.579Z,99.90
2023-02-15T10:31:43.695Z,99.90
2023-02-15T10:34:40.508Z,99.90
2023-02-15T10:37:33.630Z,99.90
2023-02-15T10:40:03.596Z,99.90
2023-02-15T10:42:57.286Z,99.90
2023-02-15T10:45:42.847Z,99.90
2023-02-15T10:48:15.459Z,99.90
2023-02-15T10:50:49.601Z,99.90
2023-02-15T10:53:31.415Z,99.90
2023-02-15T10:56:08.855Z,99.90
2023-02-15T10:58:48.608Z,99.90
2023-02-15T11:01:24.494Z,99.90
2023-02-15T11:04:11.552Z,99.90
2023-02-15T11:06:40.227Z,99.90
2023-02-15T11:09:14.155Z,99.90
2023-02-15T11:11:43.325Z,99.90
2023-02-15T11:14:41.981Z,99.90
2023-02-15T11:17:12.509Z,99.90
2023-02-15T11:19:43.259Z,99.90
2023-02-15T11:22:11.095Z,99.90
2023-02-15T11:24:42.191Z,99.90
2023-02-15T11:27:22.247Z,99.90
2023-02-15T11:29:59.637Z,99.90
2023-02-15T11:32:33.960Z,99.90
2023-02-15T11:35:12.838Z,99.90
2023-02-15T11:37:47.937Z,99.90
2023-02-15T11:40:29.542Z,99.90
2023-02-15T11:43:07.732Z,99.90
2023-02-15T11:45:37.643Z,99.90
2023-02-15T11:48:10.590Z,99.90
2023-02-15T11:50:37.529Z,99.90
2023-02-15T11:53:28.585Z,99.90
2023-02-15T11:55:55.504Z,99.90
2023-02-15T11:58:35.443Z,99.90
2023-02-15T12:01:13.065Z,99.90
2023-02-15T12:03:47.217Z,99.90
2023-02-15T12:06:29.078Z,99.90
2023-02-15T12:09:04.026Z,99.90
2023-02-15T12:11:36.754Z,99.90
2023-02-15T12:14:08.305Z,99.90
2023-02-15T12:17:01.508Z,99.90
2023-02-15T12:19:38.629Z,99.90
2023-02-15T12:22:05.760Z,99.90
2023-02-15T12:24:35.673Z,99.90
2023-02-15T12:27:05.171Z,99.90
2023-02-15T12:29:53.128Z,99.90
2023-02-15T12:32:27.899Z,99.90
2023-02-15T12:35:01.476Z,99.90
2023-02-15T12:37:30.004Z,99.90
2023-02-15T12:40:00.684Z,99.90
2023-02-15T12:42:30.152Z,99.90
2023-02-15T12:45:05.234Z,99.90
2023-02-15T12:47:33.465Z,99.90
2023-02-15T12:50:18.061Z,99.90
2023-02-15T12:52:49.622Z,99.90
2023-02-15T12:55:23.526Z,99.90
2023-02-15T12:57:51.551Z,99.90
2023-02-15T13:00:21.893Z,99.90
2023-02-15T13:02:50.859Z,99.90
2023-02-15T13:05:19.532Z,99.90
2023-02-15T13:07:55.076Z,99.80
2023-02-15T13:10:25.555Z,99.70
2023-02-15T13:12:55.089Z,99.10
2023-02-15T13:15:27.032Z,99.20
2023-02-15T13:17:53.831Z,99.30
2023-02-15T13:20:26.841Z,99.10
2023-02-15T13:22:58.858Z,98.00
2023-02-15T13:25:26.557Z,97.40
2023-02-15T13:27:55.415Z,97.00
2023-02-15T13:30:27.384Z,96.40
2023-02-15T13:32:57.294Z,96.10
2023-02-15T13:35:24.057Z,95.20
2023-02-15T13:38:14.120Z,94.50
2023-02-15T13:40:51.233Z,94.70
2023-02-15T13:43:27.198Z,94.60
2023-02-15T13:45:57.006Z,94.40
2023-02-15T13:48:51.343Z,94.30
2023-02-15T13:52:00.577Z,93.50
2023-02-15T13:54:42.297Z,93.60
2023-02-15T13:57:40.157Z,93.40
2023-02-15T14:00:25.031Z,93.00
2023-02-15T14:03:30.869Z,92.90
2023-02-15T14:06:22.380Z,92.30
2023-02-15T14:08:52.833Z,92.40
2023-02-15T14:11:33.839Z,92.30
2023-02-15T14:14:16.798Z,92.50
2023-02-15T14:17:04.511Z,92.30
2023-02-15T14:19:59.363Z,91.50
2023-02-15T14:22:26.377Z,91.20
2023-02-15T14:25:16.944Z,91.20
2023-02-15T14:28:14.688Z,90.90
2023-02-15T14:30:44.077Z,91.60
2023-02-15T14:33:35.870Z,91.30
2023-02-15T14:36:03.963Z,90.80
2023-02-15T14:38:33.684Z,90.80
2023-02-15T14:41:15.608Z,90.70
2023-02-15T14:44:04.238Z,91.40
2023-02-15T14:46:46.155Z,90.50
2023-02-15T14:49:34.229Z,90.90
2023-02-15T14:52:06.303Z,90.40
2023-02-15T14:54:35.893Z,90.50
2023-02-15T14:57:03.050Z,90.10
2023-02-15T14:59:40.043Z,90.10
2023-02-15T15:02:09.889Z,89.00
2023-02-15T15:04:48.125Z,89.70
2023-02-15T15:07:37.095Z,90.00
2023-02-15T15:10:17.249Z,90.10
2023-02-15T15:12:56.501Z,89.10
2023-02-15T15:15:32.334Z,89.00
2023-02-15T15:17:59.178Z,89.80
2023-02-15T15:20:50.943Z,90.40
2023-02-15T15:23:21.198Z,89.60
2023-02-15T15:25:57.637Z,90.10
2023-02-15T15:28:36.694Z,90.00
2023-02-15T15:31:15.629Z,90.40
2023-02-15T15:33:47.780Z,90.40
2023-02-15T15:36:26.425Z,90.90
2023-02-15T15:39:30.548Z,90.80
2023-02-15T15:42:16.892Z,91.10
2023-02-15T15:45:24.741Z,91.10
2023-02-15T15:48:07.106Z,91.00
2023-02-15T15:50:34.569Z,90.40
2023-02-15T15:53:02.068Z,90.60
2023-02-15T15:55:32.722Z,90.70
2023-02-15T15:58:04.684Z,90.30
2023-02-15T16:00:36.111Z,90.20
2023-02-15T16:03:02.923Z,90.30
2023-02-15T16:05:37.314Z,90.00
2023-02-15T16:08:04.152Z,90.40
2023-02-15T16:10:33.087Z,90.80
2023-02-15T16:12:59.851Z,91.10
2023-02-15T16:15:38.024Z,91.50
2023-02-15T16:18:04.887Z,91.60
2023-02-15T16:20:36.164Z,91.80
2023-02-15T16:23:17.462Z,92.20
2023-02-15T16:25:53.936Z,92.30
2023-02-15T16:28:21.203Z,91.90
2023-02-15T16:31:08.123Z,92.20
2023-02-15T16:33:39.402Z,92.60
2023-02-15T16:36:08.802Z,92.80
2023-02-15T16:38:35.597Z,92.80
2023-02-15T16:41:02.650Z,93.30
2023-02-15T16:43:30.368Z,93.70
2023-02-15T16:46:07.212Z,94.20
2023-02-15T16:48:34.888Z,94.40
2023-02-15T16:51:01.979Z,94.70
2023-02-15T16:53:29.616Z,94.80
2023-02-15T16:56:00.247Z,95.10
2023-02-15T16:58:37.636Z,95.50
2023-02-15T17:01:05.016Z,95.60
2023-02-15T17:03:32.278Z,95.80
2023-02-15T17:06:00.377Z,96.20
2023-02-15T17:08:31.640Z,96.40
2023-02-15T17:11:10.381Z,96.80
2023-02-15T17:13:37.133Z,97.00
2023-02-15T17:16:04.304Z,97.30
2023-02-15T17:18:59.305Z,97.50
2023-02-15T17:21:29.335Z,97.70
2023-02-15T17:24:01.297Z,98.00
2023-02-15T17:26:30.090Z,98.20
2023-02-15T17:29:22.678Z,98.20
2023-02-15T17:31:51.009Z,98.60
2023-02-15T17:34:41.843Z,98.60
2023-02-15T17:37:25.820Z,98.90
2023-02-15T17:39:52.659Z,99.00
2023-02-15T17:42:19.384Z,99.20
2023-02-15T17:44:46.781Z,99.50
2023-02-15T17:47:18.265Z,99.80
2023-02-15T17:49:45.214Z,99.90
2023-02-15T17:52:14.675Z,99.90
2023-02-15T17:55:00.320Z,99.90
2023-02-15T17:57:28.204Z,99.90
2023-02-15T18:00:13.232Z,99.90
2023-02-15T18:02:58.740Z,99.90
2023-02-15T18:05:43.933Z,99.90
2023-02-15T18:08:40.175Z,99.90
2023-02-15T18:11:27.008Z,99.90
2023-02-15T18:13:53.976Z,99.90
2023-02-15T18:16:23.300Z,99.90
2023-02-15T18:18:50.685Z,99.90
2023-02-15T18:21:17.703Z,99.90
2023-02-15T18:23:45.216Z,99.90
2023-02-15T18:26:17.516Z,99.90
2023-02-15T18:28:44.360Z,99.90
2023-02-15T18:31:11.642Z,99.90
2023-02-15T18:33:47.841Z,99.90
2023-02-15T18:36:18.400Z,99.90
2023-02-15T18:38:45.215Z,99.90
2023-02-15T18:41:18.952Z,99.90
2023-02-15T18:43:46.190Z,99.90
2023-02-15T18:46:13.674Z,99.90
2023-02-15T18:48:41.079Z,99.90
2023-02-15T18:51:17.369Z,99.90
2023-02-15T18:53:45.179Z,99.90
2023-02-15T18:56:19.339Z,99.90
2023-02-15T18:58:49.411Z,99.90
2023-02-15T19:01:21.177Z,99.90
2023-02-15T19:03:49.216Z,99.90
2023-02-15T19:06:17.779Z,99.90
2023-02-15T19:08:45.847Z,99.90
2023-02-15T19:11:28.491Z,99.90
2023-02-15T19:13:56.311Z,99.90
2023-02-15T19:16:35.648Z,99.90
2023-02-15T19:19:02.663Z,99.90
2023-02-15T19:21:30.993Z,99.90
2023-02-15T19:24:07.178Z,99.90
2023-02-15T19:26:44.894Z,99.90
2023-02-15T19:29:16.792Z,99.90
2023-02-15T19:31:43.885Z,99.90
2023-02-15T19:34:15.732Z,99.90
2023-02-15T19:36:47.669Z,99.90
2023-02-15T19:39:27.178Z,99.90
2023-02-15T19:41:57.316Z,99.90
2023-02-15T19:44:24.244Z,99.90
2023-02-15T19:46:51.941Z,99.90
2023-02-15T19:49:18.949Z,99.90
2023-02-15T19:51:46.143Z,99.90
2023-02-15T19:54:21.124Z,99.90
2023-02-15T19:56:48.429Z,99.90
2023-02-15T19:59:35.189Z,99.90
2023-02-15T20:02:02.327Z,99.90
2023-02-15T20:04:29.569Z,99.90
2023-02-15T20:06:59.372Z,99.90
2023-02-15T20:09:29.668Z,99.90
2023-02-15T20:11:59.596Z,99.90
2023-02-15T20:14:27.338Z,99.90
2023-02-15T20:16:55.147Z,99.90
2023-02-15T20:19:23.451Z,99.90
2023-02-15T20:21:58.532Z,99.90
2023-02-15T20:24:26.254Z,99.90
2023-02-15T20:26:54.154Z,99.90
2023-02-15T20:29:21.541Z,99.90
2023-02-15T20:31:49.158Z,99.90
2023-02-15T20:34:16.827Z,99.90
2023-02-15T20:36:44.366Z,99.90
2023-02-15T20:39:17.817Z,99.90
2023-02-15T20:41:47.960Z,99.90
2023-02-15T20:44:24.148Z,99.90
2023-02-15T20:46:53.458Z,99.90
2023-02-15T20:49:22.984Z,99.90
2023-02-15T20:51:53.063Z,99.90
2023-02-15T20:54:22.596Z,99.90
2023-02-15T20:56:51.041Z,99.90
2023-02-15T20:59:29.244Z,99.90
2023-02-15T21:02:00.313Z,99.90
2023-02-15T21:04:32.062Z,99.90
2023-02-15T21:07:00.846Z,99.90
2023-02-15T21:09:29.691Z,99.90
2023-02-15T21:11:59.424Z,99.90
2023-02-15T21:14:30.811Z,99.90
2023-02-15T21:17:01.289Z,99.90
2023-02-15T21:19:28.658Z,99.90
2023-02-15T21:21:57.704Z,99.90
2023-02-15T21:24:33.809Z,99.90
2023-02-15T21:27:03.096Z,99.90
2023-02-15T21:29:31.319Z,99.90
2023-02-15T21:31:59.153Z,99.90
2023-02-15T21:34:30.311Z,99.90
2023-02-15T21:36:57.572Z,99.90
2023-02-15T21:39:26.234Z,99.90
2023-02-15T21:42:12.820Z,99.90
2023-02-15T21:45:00.516Z,99.90
2023-02-15T21:47:48.221Z,99.90
2023-02-15T21:50:38.008Z,99.90
2023-02-15T21:53:06.350Z,99.90
2023-02-15T21:55:33.294Z,99.90
2023-02-15T21:58:00.555Z,99.90
2023-02-15T22:00:27.786Z,99.90
2023-02-15T22:02:56.057Z,99.90
2023-02-15T22:05:30.648Z,99.90
2023-02-15T22:07:57.582Z,99.90
2023-02-15T22:10:26.860Z,99.90
2023-02-15T22:12:53.578Z,99.90
2023-02-15T22:15:21.765Z,99.90
2023-02-15T22:17:49.009Z,99.90
2023-02-15T22:20:20.747Z,99.90
2023-02-15T22:22:47.942Z,99.90
2023-02-15T22:25:16.038Z,99.90
2023-02-15T22:27:46.210Z,99.90
2023-02-15T22:30:20.542Z,99.90
2023-02-15T22:32:47.524Z,99.90
2023-02-15T22:35:34.769Z,99.90
2023-02-15T22:38:01.566Z,99.90
2023-02-15T22:40:30.304Z,99.90
2023-02-15T22:42:57.522Z,99.90
2023-02-15T22:45:24.693Z,99.90
2023-02-15T22:47:58.330Z,99.90
2023-02-15T22:50:26.989Z,99.90
2023-02-15T22:52:54.100Z,99.90
2023-02-15T22:55:23.137Z,99.90
2023-02-15T22:57:54.266Z,99.90
2023-02-15T23:00:22.929Z,99.90
2023-02-15T23:02:49.668Z,99.90
2023-02-15T23:05:18.183Z,99.90
2023-02-15T23:07:45.322Z,99.90
2023-02-15T23:10:21.346Z,99.90
2023-02-15T23:13:17.456Z,99.90
2023-02-15T23:15:45.485Z,99.90
2023-02-15T23:18:16.994Z,99.90
2023-02-15T23:20:44.692Z,99.90
2023-02-15T23:23:11.907Z,99.90
2023-02-15T23:25:38.980Z,99.90
2023-02-15T23:28:06.340Z,99.90
2023-02-15T23:30:33.250Z,99.90
2023-02-15T23:32:59.969Z,99.90
2023-02-15T23:35:26.763Z,99.90
2023-02-15T23:37:53.435Z,99.90
2023-02-15T23:40:39.544Z,99.90
2023-02-15T23:43:07.124Z,99.90
2023-02-15T23:45:37.479Z,99.90
2023-02-15T23:48:28.174Z,99.90
2023-02-15T23:50:55.041Z,99.90
2023-02-15T23:53:24.814Z,99.90
2023-02-15T23:55:51.602Z,99.90
2023-02-15T23:58:20.297Z,99.90
